Time;durP1;ratioP1;P1;durP2;ratioP2;P2;SDS_P1;SDS_P2;PMS_P1;PMS_P2;Temp;Humidity;BMP_temperature;BMP_pressure;BME280_temperature;BME280_humidity;BME280_pressure;Samples;Min_cycle;Max_cycle;Signal;HPM_P1;HPM_P2
2022/12/29 00:01:55;;;;;;;;;;;;;;;-9.58;64.21;97778.69;6299585;28;19970;-68
2022/12/29 00:04:56;;;;;;;;;;;;;;;-9.54;64.05;97778.81;6298917;28;19920;-67
2022/12/29 00:07:57;;;;;;;;;;;;;;;-9.49;64.34;97772.13;6297720;28;19920;-67
2022/12/29 00:10:58;;;;;;;;;;;;;;;-9.40;63.92;97775.75;6299082;28;20405;-67
2022/12/29 00:17:21;;;;;;;;;;;;;;;-9.28;63.64;97771.03;6299232;28;20336;-68
2022/12/29 00:44:04;;;;;;;;;;;;;;;-9.13;63.76;97766.31;6298892;28;19920;-68
2022/12/29 00:44:06;;;;;;;;;;;;;;;-9.21;63.21;97765.25;6298608;28;20313;-67
2022/12/29 00:47:07;;;;;;;;;;;;;;;-9.16;63.54;97770.50;6297548;28;19920;-67
2022/12/29 00:50:11;;;;;;;;;;;;;;;-9.10;63.71;97766.41;6298185;28;19920;-69
2022/12/29 00:53:15;;;;;;;;;;;;;;;-9.07;63.30;97755.44;6298499;28;20368;-68
2022/12/29 00:56:18;;;;;;;;;;;;;;;-9.09;63.53;97755.38;6298069;28;19920;-68
2022/12/29 00:59:23;;;;;;;;;;;;;;;-9.14;63.43;97754.41;6297866;28;20006;-67
2022/12/29 01:02:29;;;;;;;;;;;;;;;-9.20;63.44;97754.22;6298201;28;20374;-68
2022/12/29 01:05:35;;;;;;;;;;;;;;;-9.23;63.72;97743.09;6297974;28;19920;-66
2022/12/29 01:08:38;;;;;;;;;;;;;;;-9.27;63.37;97753.22;6297896;28;20015;-66
2022/12/29 01:11:41;;;;;;;;;;;;;;;-9.27;63.39;97757.44;6297716;28;19920;-67
2022/12/29 01:14:45;;;;;;;;;;;;;;;-9.27;63.57;97747.25;6297097;28;20515;-67
2022/12/29 01:17:51;;;;;;;;;;;;;;;-9.27;63.57;97747.25;6297783;28;19928;-67
2022/12/29 01:21:01;;;;;;;;;;;;;;;-9.30;63.60;97749.72;6296714;28;19959;-67
2022/12/29 01:24:05;;;;;;;;;;;;;;;-9.31;63.88;97745.47;6297087;28;19921;-67
2022/12/29 01:27:06;;;;;;;;;;;;;;;-9.30;63.44;97752.28;6295727;28;20045;-67
2022/12/29 01:30:09;;;;;;;;;;;;;;;-9.30;63.42;97747.19;6297268;28;19963;-67
2022/12/29 01:33:13;;;;;;;;;;;;;;;-9.30;63.53;97752.28;6295523;28;19927;-68
2022/12/29 01:36:17;;;;;;;;;;;;;;;-9.28;63.48;97755.72;6297279;28;19920;-68
2022/12/29 01:39:18;;;;;;;;;;;;;;;-9.28;63.62;97750.63;6297105;28;20010;-66
2022/12/29 01:42:22;;;;;;;;;;;;;;;-9.30;63.30;97742.06;6296508;28;20310;-67
2022/12/29 01:45:25;;;;;;;;;;;;;;;-9.31;63.68;97748.00;6296553;28;20015;-67
2022/12/29 01:48:29;;;;;;;;;;;;;;;-9.35;63.79;97753.81;6296967;28;19924;-68
2022/12/29 01:51:37;;;;;;;;;;;;;;;-9.39;63.45;97749.47;6296882;28;19920;-68
2022/12/29 01:54:43;;;;;;;;;;;;;;;-9.37;63.86;97747.81;6296874;28;20382;-68
2022/12/29 01:57:46;;;;;;;;;;;;;;;-9.33;63.62;97747.09;6296391;28;19967;-68
2022/12/29 02:00:50;;;;;;;;;;;;;;;-9.31;63.81;97750.56;6296416;28;19947;-68
2022/12/29 02:03:54;;;;;;;;;;;;;;;-9.31;63.55;97750.56;6296322;28;20330;-68
2022/12/29 02:07:03;;;;;;;;;;;;;;;-9.32;63.76;97756.47;6296258;28;19921;-68
2022/12/29 02:10:04;;;;;;;;;;;;;;;-9.34;63.57;97755.53;6295989;28;20367;-68
2022/12/29 02:13:06;;;;;;;;;;;;;;;-9.38;63.99;97751.19;6295736;28;20006;-68
2022/12/29 02:16:19;;;;;;;;;;;;;;;-9.41;63.70;97762.16;6296065;28;19920;-68
2022/12/29 02:19:22;;;;;;;;;;;;;;;-9.47;63.78;97763.69;6296352;28;19920;-68
2022/12/29 02:22:48;;;;;;;;;;;;;;;-9.55;63.58;97766.88;6296118;28;19960;-68
2022/12/29 02:26:01;;;;;;;;;;;;;;;-9.60;64.14;97768.44;6295618;28;19920;-68
2022/12/29 02:29:07;;;;;;;;;;;;;;;-9.57;63.78;97773.59;6296019;28;19920;-67
2022/12/29 02:32:14;;;;;;;;;;;;;;;-9.53;64.04;97770.34;6296115;28;20301;-67
2022/12/29 02:35:24;;;;;;;;;;;;;;;-9.49;63.86;97771.28;6296257;28;19920;-66
2022/12/29 02:38:44;;;;;;;;;;;;;;;-9.55;63.96;97773.66;6295306;28;19920;-68
2022/12/29 02:41:53;;;;;;;;;;;;;;;-9.58;63.70;97782.06;6295806;28;19920;-67
2022/12/29 02:45:04;;;;;;;;;;;;;;;-9.60;64.08;97773.53;6295939;28;19920;-67
2022/12/29 02:48:08;;;;;;;;;;;;;;;-9.62;63.67;97775.19;6296050;28;20306;-67
2022/12/29 02:51:14;;;;;;;;;;;;;;;-9.63;63.96;97778.53;6295518;28;19924;-67
2022/12/29 02:57:38;;;;;;;;;;;;;;;-9.60;64.18;97763.34;6294577;28;19920;-68
2022/12/29 03:01:05;;;;;;;;;;;;;;;-9.58;64.09;97765.94;6295705;28;20332;-68
2022/12/29 03:04:13;;;;;;;;;;;;;;;-9.60;63.96;97757.38;6294876;28;19953;-69
2022/12/29 03:07:29;;;;;;;;;;;;;;;-9.60;64.09;97758.22;6295495;28;19950;-68
2022/12/29 03:10:38;;;;;;;;;;;;;;;-9.60;63.97;97755.69;6295429;28;19921;-68
2022/12/29 03:17:16;;;;;;;;;;;;;;;-9.55;63.98;97756.69;6295292;28;19926;-68
2022/12/29 03:20:26;;;;;;;;;;;;;;;-9.52;63.75;97738.94;6295578;28;20026;-67
2022/12/29 03:23:28;;;;;;;;;;;;;;;-9.52;63.90;97745.72;6295179;28;19927;-67
2022/12/29 03:26:29;;;;;;;;;;;;;;;-9.55;63.52;97746.50;6293457;28;19989;-68
2022/12/29 03:29:36;;;;;;;;;;;;;;;-9.57;63.48;97737.94;6295203;28;19920;-67
2022/12/29 03:32:44;;;;;;;;;;;;;;;-9.57;63.48;97747.28;6295138;28;19920;-67
2022/12/29 03:35:46;;;;;;;;;;;;;;;-9.55;64.07;97755.81;6295020;28;19924;-68
2022/12/29 03:38:55;;;;;;;;;;;;;;;-9.52;63.70;97754.22;6295240;28;19920;-68
2022/12/29 03:42:02;;;;;;;;;;;;;;;-9.47;63.50;97750.97;6295077;28;19928;-67
2022/12/29 03:45:04;;;;;;;;;;;;;;;-9.44;63.87;97746.78;6294985;28;20279;-68
2022/12/29 03:48:15;;;;;;;;;;;;;;;-9.39;63.96;97752.03;6296324;28;19920;-67
2022/12/29 03:51:21;;;;;;;;;;;;;;;-9.35;63.77;97751.28;6299663;28;19924;-68
2022/12/29 03:54:22;;;;;;;;;;;;;;;-9.31;64.24;97742.91;6299617;28;19927;-67
2022/12/29 03:57:25;;;;;;;;;;;;;;;-9.24;63.78;97754.13;6299007;28;20001;-68
2022/12/29 04:00:32;;;;;;;;;;;;;;;-9.19;63.61;97761.06;6299507;28;20419;-68
2022/12/29 04:03:35;;;;;;;;;;;;;;;-9.20;63.43;97755.91;6299089;28;19920;-68
2022/12/29 04:06:41;;;;;;;;;;;;;;;-9.20;63.47;97764.41;6298871;28;19920;-68
2022/12/29 04:09:44;;;;;;;;;;;;;;;-9.12;63.81;97756.97;6299004;28;19927;-68
2022/12/29 04:12:50;;;;;;;;;;;;;;;-9.03;63.74;97759.75;6298194;28;19931;-69
2022/12/29 04:15:51;;;;;;;;;;;;;;;-8.95;63.89;97758.28;6298343;28;19920;-69
2022/12/29 04:18:54;;;;;;;;;;;;;;;-8.86;63.54;97762.75;6299057;28;19920;-67
2022/12/29 04:21:58;;;;;;;;;;;;;;;-8.83;63.25;97762.81;6298114;28;20057;-68
2022/12/29 04:24:59;;;;;;;;;;;;;;;-8.80;63.82;97770.59;6298447;28;19928;-68
2022/12/29 04:28:03;;;;;;;;;;;;;;;-8.75;63.27;97758.78;6298414;28;19927;-69
2022/12/29 04:31:09;;;;;;;;;;;;;;;-8.75;63.59;97763.03;6298957;28;19916;-67
2022/12/29 04:34:10;;;;;;;;;;;;;;;-8.73;63.29;97764.78;6298487;28;20030;-67
2022/12/29 04:37:11;;;;;;;;;;;;;;;-8.68;63.18;97763.22;6297818;28;19935;-68
2022/12/29 04:40:14;;;;;;;;;;;;;;;-8.68;63.43;97759.81;6298390;28;19931;-68
2022/12/29 04:43:21;;;;;;;;;;;;;;;-8.63;63.15;97769.31;6298391;28;19920;-68
2022/12/29 04:46:22;;;;;;;;;;;;;;;-8.60;63.84;97769.38;6297690;28;19920;-68
2022/12/29 04:49:31;;;;;;;;;;;;;;;-8.60;63.42;97769.38;6298394;28;19920;-68
2022/12/29 04:52:37;;;;;;;;;;;;;;;-8.56;63.57;97774.56;6298279;28;19921;-68
2022/12/29 04:55:41;;;;;;;;;;;;;;;-8.47;63.12;97774.78;6297659;28;19927;-68
2022/12/29 04:58:44;;;;;;;;;;;;;;;-8.34;63.53;97779.31;6297555;28;19920;-68
2022/12/29 05:01:48;;;;;;;;;;;;;;;-8.27;63.43;97772.66;6296219;28;20454;-68
2022/12/29 05:04:51;;;;;;;;;;;;;;;-8.20;63.43;97775.41;6297848;28;19924;-68
2022/12/29 05:07:57;;;;;;;;;;;;;;;-8.20;63.06;97780.50;6297194;28;19920;-68
2022/12/29 05:11:00;;;;;;;;;;;;;;;-8.18;62.96;97783.97;6297756;28;19924;-69
2022/12/29 05:14:04;;;;;;;;;;;;;;;-8.14;63.32;97780.63;6297772;28;19930;-68
2022/12/29 05:20:46;;;;;;;;;;;;;;;-7.88;63.52;97777.81;6297589;28;19928;-68
2022/12/29 05:23:49;;;;;;;;;;;;;;;-7.76;62.66;97783.19;6297489;28;19927;-68
2022/12/29 05:26:50;;;;;;;;;;;;;;;-7.73;62.41;97788.38;6297090;28;19924;-67
2022/12/29 05:29:53;;;;;;;;;;;;;;;-7.72;62.41;97784.97;6295962;28;19920;-68
2022/12/29 05:32:57;;;;;;;;;;;;;;;-7.74;62.58;97770.44;6297305;28;19917;-68
2022/12/29 05:36:05;;;;;;;;;;;;;;;-7.75;62.98;97774.69;6297185;28;19926;-68
2022/12/29 05:39:17;;;;;;;;;;;;;;;-7.71;62.57;97776.47;6296715;28;19916;-68
2022/12/29 05:42:20;;;;;;;;;;;;;;;-7.66;62.21;97778.28;6297168;28;19920;-68
2022/12/29 05:45:22;;;;;;;;;;;;;;;-7.64;62.45;97781.72;6295937;28;19927;-68
2022/12/29 05:48:24;;;;;;;;;;;;;;;-7.57;62.17;97775.91;6294732;28;19920;-68
2022/12/29 05:55:08;;;;;;;;;;;;;;;-7.42;62.06;97771.09;6296292;28;19973;-68
2022/12/29 05:58:12;;;;;;;;;;;;;;;-7.32;62.57;97778.13;6295903;28;19920;-68
2022/12/29 06:01:14;;;;;;;;;;;;;;;-7.18;61.90;97780.97;6296598;28;20057;-68
2022/12/29 06:04:15;;;;;;;;;;;;;;;-7.23;61.56;97778.31;6296559;28;19931;-68
2022/12/29 06:07:25;;;;;;;;;;;;;;;-7.20;62.32;97768.97;6296552;28;19920;-68
2022/12/29 06:10:29;;;;;;;;;;;;;;;-7.17;61.61;97769.88;6296333;28;19920;-68
2022/12/29 06:13:35;;;;;;;;;;;;;;;-7.13;62.03;97774.25;6296396;28;19920;-68
2022/12/29 06:16:39;;;;;;;;;;;;;;;-7.05;62.09;97782.03;6296170;28;20400;-68
2022/12/29 06:19:43;;;;;;;;;;;;;;;-7.03;61.66;97783.78;6296397;28;19923;-67
2022/12/29 06:22:47;;;;;;;;;;;;;;;-6.99;62.08;97779.63;6295127;28;20462;-69
2022/12/29 06:25:50;;;;;;;;;;;;;;;-6.93;61.62;97779.72;6296167;28;19924;-68
2022/12/29 06:28:52;;;;;;;;;;;;;;;-6.90;61.32;97786.59;6295725;28;19920;-69
2022/12/29 06:31:55;;;;;;;;;;;;;;;-6.98;61.65;97786.44;6296128;28;20341;-68
2022/12/29 06:34:56;;;;;;;;;;;;;;;-7.00;61.38;97788.13;6295201;28;19924;-68
2022/12/29 06:38:03;;;;;;;;;;;;;;;-6.97;61.61;97798.41;6296128;28;20453;-68
2022/12/29 06:41:04;;;;;;;;;;;;;;;-6.93;61.07;97778.88;6295882;28;20290;-68
2022/12/29 06:44:08;;;;;;;;;;;;;;;-6.88;61.40;97780.69;6296033;28;19920;-68
2022/12/29 06:47:09;;;;;;;;;;;;;;;-6.78;61.17;97779.13;6295364;28;20062;-69
2022/12/29 06:50:13;;;;;;;;;;;;;;;-6.68;60.92;97780.16;6295748;28;20301;-68
2022/12/29 06:53:14;;;;;;;;;;;;;;;-6.65;60.73;97775.06;6295674;28;19920;-70
2022/12/29 06:56:16;;;;;;;;;;;;;;;-6.58;61.18;97771.81;6295611;28;19928;-69
2022/12/29 06:59:19;;;;;;;;;;;;;;;-6.48;60.97;97763.44;6295461;28;19920;-67
2022/12/29 07:02:21;;;;;;;;;;;;;;;-6.33;60.37;97763.69;6295753;28;20342;-68
2022/12/29 07:05:26;;;;;;;;;;;;;;;-6.13;60.24;97766.53;6294982;28;19920;-68
2022/12/29 07:08:27;;;;;;;;;;;;;;;-6.03;59.77;97757.28;6295611;28;19920;-68
2022/12/29 07:11:31;;;;;;;;;;;;;;;-5.72;59.36;97757.69;6295394;28;19927;-69
2022/12/29 07:14:36;;;;;;;;;;;;;;;-5.48;58.95;97752.03;6295359;28;20479;-68
2022/12/29 07:17:37;;;;;;;;;;;;;;;-5.43;59.09;97748.69;6295323;28;19931;-69
2022/12/29 07:20:38;;;;;;;;;;;;;;;-5.43;58.79;97750.38;6294654;28;19947;-68
2022/12/29 07:23:39;;;;;;;;;;;;;;;-5.40;58.76;97749.56;6297235;28;19920;-68
2022/12/29 07:26:41;;;;;;;;;;;;;;;-5.33;58.81;97741.94;6299748;28;19925;-68
2022/12/29 07:29:42;;;;;;;;;;;;;;;-5.34;58.52;97744.50;6299337;28;20413;-67
2022/12/29 07:32:46;;;;;;;;;;;;;;;-5.31;58.73;97744.53;6299650;28;19916;-68
2022/12/29 07:35:49;;;;;;;;;;;;;;;-5.25;58.50;97748.03;6299735;28;19920;-69
2022/12/29 07:38:50;;;;;;;;;;;;;;;-5.15;58.81;97746.44;6299511;28;19925;-68
2022/12/29 07:41:56;;;;;;;;;;;;;;;-5.01;58.64;97742.31;6299390;28;20002;-67
2022/12/29 07:44:59;;;;;;;;;;;;;;;-4.84;58.50;97746.72;6298158;28;19927;-69
2022/12/29 07:48:08;;;;;;;;;;;;;;;-4.68;57.70;97751.16;6299621;28;19920;-68
2022/12/29 07:51:11;;;;;;;;;;;;;;;-4.62;57.76;97753.78;6299340;28;19920;-69
2022/12/29 07:54:17;;;;;;;;;;;;;;;-4.51;57.49;97748.75;6299596;28;19920;-68
2022/12/29 07:57:22;;;;;;;;;;;;;;;-4.30;57.75;97750.66;6299241;28;20274;-68
2022/12/29 08:00:26;;;;;;;;;;;;;;;-4.13;57.51;97753.34;6299255;28;19926;-68
2022/12/29 08:03:29;;;;;;;;;;;;;;;-3.99;56.97;97740.56;6299305;28;20289;-68
2022/12/29 08:06:33;;;;;;;;;;;;;;;-3.85;57.16;97733.78;6299147;28;19920;-69
2022/12/29 08:09:35;;;;;;;;;;;;;;;-3.76;56.46;97739.00;6297688;28;20390;-68
2022/12/29 08:12:40;;;;;;;;;;;;;;;-3.69;56.77;97740.75;6299275;28;19916;-68
2022/12/29 08:15:45;;;;;;;;;;;;;;;-3.76;56.31;97739.00;6298893;28;19920;-69
2022/12/29 08:18:48;;;;;;;;;;;;;;;-3.91;56.59;97738.91;6297506;28;19955;-69
2022/12/29 08:21:49;;;;;;;;;;;;;;;-3.97;57.02;97738.88;6298518;28;19966;-68
2022/12/29 08:24:53;;;;;;;;;;;;;;;-3.93;56.92;97740.63;6298765;28;19924;-68
2022/12/29 08:27:57;;;;;;;;;;;;;;;-3.97;57.28;97738.88;6298352;28;19927;-67
2022/12/29 08:31:02;;;;;;;;;;;;;;;-4.02;57.41;97733.69;6298330;28;19920;-69
2022/12/29 08:34:06;;;;;;;;;;;;;;;-4.12;56.83;97740.50;6297951;28;19927;-68
2022/12/29 08:37:19;;;;;;;;;;;;;;;-4.25;57.01;97743.81;6297027;28;19920;-68
2022/12/29 08:40:35;;;;;;;;;;;;;;;-4.40;57.49;97741.13;6298243;28;19927;-67
2022/12/29 08:43:39;;;;;;;;;;;;;;;-4.65;57.57;97738.34;6298155;28;19924;-68
2022/12/29 08:46:40;;;;;;;;;;;;;;;-4.68;58.21;97732.34;6297986;28;19929;-68
2022/12/29 08:49:44;;;;;;;;;;;;;;;-4.58;57.85;97735.00;6296194;28;19958;-67
2022/12/29 08:52:48;;;;;;;;;;;;;;;-4.41;58.09;97731.72;6297341;28;20305;-68
2022/12/29 08:55:55;;;;;;;;;;;;;;;-4.33;57.74;97732.63;6298088;28;19920;-68
2022/12/29 08:59:00;;;;;;;;;;;;;;;-4.28;57.32;97724.09;6297859;28;19974;-69
2022/12/29 09:02:10;;;;;;;;;;;;;;;-4.35;56.74;97727.47;6297687;28;19924;-70
2022/12/29 09:05:14;;;;;;;;;;;;;;;-4.65;57.18;97717.81;6297814;28;19920;-67
2022/12/29 09:08:20;;;;;;;;;;;;;;;-4.75;56.58;97723.72;6297821;28;19921;-69
2022/12/29 09:11:23;;;;;;;;;;;;;;;-4.90;57.76;97716.72;6297817;28;19928;-67
2022/12/29 09:14:26;;;;;;;;;;;;;;;-4.87;58.17;97723.59;6297335;28;19927;-68
2022/12/29 09:17:46;;;;;;;;;;;;;;;-4.58;57.95;97719.59;6297434;28;19920;-68
2022/12/29 09:21:15;;;;;;;;;;;;;;;-4.03;57.08;97728.56;6297112;28;20065;-68
2022/12/29 09:24:22;;;;;;;;;;;;;;;-3.65;56.34;97713.34;6297448;28;19923;-68
2022/12/29 09:27:29;;;;;;;;;;;;;;;-3.62;55.24;97716.78;6295633;28;20066;-68
2022/12/29 09:30:33;;;;;;;;;;;;;;;-3.73;55.61;97717.59;6297317;28;20428;-70
2022/12/29 09:33:34;;;;;;;;;;;;;;;-3.39;55.13;97705.72;6296446;28;19927;-68
2022/12/29 09:36:38;;;;;;;;;;;;;;;-3.24;54.57;97708.34;6296168;28;20057;-69
2022/12/29 09:39:40;;;;;;;;;;;;;;;-3.27;53.67;97707.47;6295877;28;20301;-69
2022/12/29 09:42:45;;;;;;;;;;;;;;;-3.34;54.55;97710.88;6296374;28;19943;-69
2022/12/29 09:46:18;;;;;;;;;;;;;;;-3.11;54.74;97704.09;6296371;28;20344;-68
2022/12/29 09:49:30;;;;;;;;;;;;;;;-2.76;53.96;97704.16;6264363;28;19920;-69
2022/12/29 09:52:35;;;;;;;;;;;;;;;-2.57;53.36;97704.19;6296582;28;20444;-69
2022/12/29 09:55:40;;;;;;;;;;;;;;;-2.65;53.61;97703.31;6296096;28;19920;-68
2022/12/29 09:58:45;;;;;;;;;;;;;;;-2.89;53.29;97699.84;6296274;28;19973;-69
2022/12/29 10:01:59;;;;;;;;;;;;;;;-2.98;53.55;97705.81;6296820;28;19920;-69
2022/12/29 10:05:03;;;;;;;;;;;;;;;-2.72;53.61;97710.16;6296350;28;19927;-69
2022/12/29 10:08:17;;;;;;;;;;;;;;;-1.98;52.51;97702.38;6296500;28;19935;-69
2022/12/29 10:11:37;;;;;;;;;;;;;;;-1.73;51.49;97695.44;6296361;28;19927;-68
2022/12/29 10:14:40;;;;;;;;;;;;;;;-2.24;51.70;97699.84;6295726;28;19920;-68
2022/12/29 10:17:44;;;;;;;;;;;;;;;-2.90;52.70;97692.97;6296307;28;20057;-69
2022/12/29 10:21:00;;;;;;;;;;;;;;;-3.51;53.75;97692.81;6296257;28;19950;-68
2022/12/29 10:24:05;;;;;;;;;;;;;;;-4.04;54.64;97696.00;6295834;28;19927;-68
2022/12/29 10:27:13;;;;;;;;;;;;;;;-4.39;55.02;97699.19;6296096;28;19942;-68
2022/12/29 10:30:15;;;;;;;;;;;;;;;-4.65;55.56;97701.53;6296053;28;20508;-68
2022/12/29 10:33:23;;;;;;;;;;;;;;;-4.82;55.96;97701.41;6296021;28;19921;-68
2022/12/29 10:36:33;;;;;;;;;;;;;;;-5.00;55.50;97704.66;6296227;28;20018;-69
2022/12/29 10:39:42;;;;;;;;;;;;;;;-5.17;55.86;97706.22;6295726;28;20069;-68
2022/12/29 10:42:45;;;;;;;;;;;;;;;-5.35;56.31;97706.84;6295695;28;19920;-68
2022/12/29 10:45:53;;;;;;;;;;;;;;;-5.55;56.45;97710.03;6295870;28;19921;-68
2022/12/29 10:48:57;;;;;;;;;;;;;;;-5.88;56.11;97701.09;6295810;28;19942;-68
2022/12/29 10:52:04;;;;;;;;;;;;;;;-6.19;56.31;97699.84;6296077;28;20381;-69
2022/12/29 10:55:08;;;;;;;;;;;;;;;-6.43;57.05;97704.63;6295707;28;20439;-69
2022/12/29 10:58:13;;;;;;;;;;;;;;;-6.70;57.49;97705.06;6298481;28;19925;-69
2022/12/29 11:01:20;;;;;;;;;;;;;;;-6.92;57.66;97704.69;6300822;28;20333;-68
2022/12/29 11:04:36;;;;;;;;;;;;;;;-7.00;57.97;97711.38;6300400;28;19922;-70
2022/12/29 11:07:40;;;;;;;;;;;;;;;-7.02;57.65;97707.91;6300051;28;19932;-68
2022/12/29 11:10:44;;;;;;;;;;;;;;;-7.09;57.47;97706.94;6300461;28;20390;-68
2022/12/29 11:13:48;;;;;;;;;;;;;;;-7.21;57.86;97705.88;6300893;28;19924;-68
2022/12/29 11:16:57;;;;;;;;;;;;;;;-7.39;58.20;97702.13;6300009;28;19993;-69
2022/12/29 11:20:28;;;;;;;;;;;;;;;-7.61;57.93;97700.88;6300369;28;19966;-69
2022/12/29 11:23:31;;;;;;;;;;;;;;;-7.77;58.12;97701.41;6300096;28;19920;-68
2022/12/29 11:26:37;;;;;;;;;;;;;;;-7.84;58.82;97708.09;6299636;28;19920;-69
2022/12/29 11:29:41;;;;;;;;;;;;;;;-7.91;58.57;97706.22;6299492;28;19928;-68
2022/12/29 11:32:50;;;;;;;;;;;;;;;-8.02;58.67;97702.56;6300051;28;19945;-69
2022/12/29 11:35:57;;;;;;;;;;;;;;;-8.17;58.75;97716.75;6300042;28;19927;-68
2022/12/29 11:39:03;;;;;;;;;;;;;;;-8.38;58.89;97703.47;6299786;28;19926;-68
2022/12/29 11:42:12;;;;;;;;;;;;;;;-8.62;58.92;97698.72;6298967;28;19931;-68
2022/12/29 11:45:16;;;;;;;;;;;;;;;-8.74;59.43;97701.84;6299453;28;19920;-69
2022/12/29 11:48:20;;;;;;;;;;;;;;;-8.87;59.63;97689.63;6299490;28;19924;-68
2022/12/29 11:51:26;;;;;;;;;;;;;;;-8.95;59.21;97683.47;6299697;28;19927;-68
2022/12/29 11:54:36;;;;;;;;;;;;;;;-9.05;59.53;97684.94;6299465;28;19920;-68
2022/12/29 11:57:41;;;;;;;;;;;;;;;-9.15;59.62;97685.53;6299547;28;19920;-67
2022/12/29 12:00:49;;;;;;;;;;;;;;;-9.21;59.54;97683.69;6299431;28;19920;-68
2022/12/29 12:04:09;;;;;;;;;;;;;;;-9.30;59.64;97688.56;6299112;28;19920;-69
2022/12/29 12:07:20;;;;;;;;;;;;;;;-9.42;59.82;97688.25;6299112;28;19920;-68
2022/12/29 12:10:33;;;;;;;;;;;;;;;-9.51;59.87;97697.38;6297981;28;19920;-69
2022/12/29 12:13:38;;;;;;;;;;;;;;;-9.56;60.26;97692.97;6298803;28;19924;-68
2022/12/29 12:16:46;;;;;;;;;;;;;;;-9.67;59.98;97702.88;6298267;28;19916;-69
2022/12/29 12:20:18;;;;;;;;;;;;;;;-9.79;60.22;97705.09;6298990;28;19920;-68
2022/12/29 12:23:28;;;;;;;;;;;;;;;-9.91;60.33;97699.63;6286502;28;19916;-69
2022/12/29 12:26:38;;;;;;;;;;;;;;;-9.96;60.44;97702.06;6298097;28;19943;-68
2022/12/29 12:29:44;;;;;;;;;;;;;;;-9.99;60.56;97707.94;6298527;28;19927;-68
2022/12/29 12:32:53;;;;;;;;;;;;;;;-10.00;60.52;97711.25;6298812;28;20401;-68
2022/12/29 12:35:58;;;;;;;;;;;;;;;-9.97;60.77;97706.25;6298636;28;19921;-67
2022/12/29 12:39:01;;;;;;;;;;;;;;;-9.91;60.54;97704.72;6298460;28;19970;-69
2022/12/29 12:42:02;;;;;;;;;;;;;;;-9.89;60.71;97692.91;6298506;28;19927;-68
2022/12/29 12:45:25;;;;;;;;;;;;;;;-9.87;60.74;97701.44;6298211;28;19920;-68
2022/12/29 12:48:38;;;;;;;;;;;;;;;-9.83;60.38;97708.34;6298274;28;20025;-68
2022/12/29 12:51:45;;;;;;;;;;;;;;;-9.74;60.35;97721.31;6298072;28;19920;-68
2022/12/29 12:54:50;;;;;;;;;;;;;;;-9.65;60.58;97719.06;6297572;28;20026;-68
2022/12/29 12:58:07;;;;;;;;;;;;;;;-9.60;60.23;97716.63;6296554;28;20014;-70
2022/12/29 13:01:14;;;;;;;;;;;;;;;-9.59;60.19;97708.19;6297970;28;20313;-69
2022/12/29 13:04:14;;;;;;;;;;;;;;;-9.57;60.42;97719.25;6298035;28;19927;-69
2022/12/29 13:07:21;;;;;;;;;;;;;;;-9.53;60.03;97721.94;6297859;28;19920;-68
2022/12/29 13:10:30;;;;;;;;;;;;;;;-9.51;60.10;97716.88;6297974;28;19920;-68
2022/12/29 13:13:46;;;;;;;;;;;;;;;-9.50;59.98;97711.81;6297699;28;19927;-67
2022/12/29 13:17:06;;;;;;;;;;;;;;;-9.53;60.21;97714.28;6297152;28;19927;-67
2022/12/29 13:20:13;;;;;;;;;;;;;;;-9.52;60.07;97726.19;6296309;28;20286;-69
2022/12/29 13:23:24;;;;;;;;;;;;;;;-9.51;60.23;97717.75;6297163;28;19927;-69
2022/12/29 13:26:42;;;;;;;;;;;;;;;-9.53;60.24;97721.94;6297172;28;20389;-68
2022/12/29 13:29:53;;;;;;;;;;;;;;;-9.56;60.09;97708.25;6296903;28;19935;-67
2022/12/29 13:33:08;;;;;;;;;;;;;;;-9.56;60.18;97704.03;6297404;28;20006;-68
2022/12/29 13:36:11;;;;;;;;;;;;;;;-9.53;60.26;97709.19;6297356;28;19920;-69
2022/12/29 13:39:33;;;;;;;;;;;;;;;-9.53;59.99;97714.28;6297055;28;20010;-69
2022/12/29 13:42:40;;;;;;;;;;;;;;;-9.56;60.18;97704.03;6297036;28;19920;-69
2022/12/29 13:45:45;;;;;;;;;;;;;;;-9.58;60.47;97694.59;6296811;28;19959;-68
2022/12/29 13:48:54;;;;;;;;;;;;;;;-9.57;60.44;97692.09;6296945;28;19927;-68
2022/12/29 13:52:04;;;;;;;;;;;;;;;-9.54;60.03;97689.66;6296613;28;19916;-68
2022/12/29 13:55:05;;;;;;;;;;;;;;;-9.52;60.29;97700.72;6296501;28;19963;-69
2022/12/29 13:58:23;;;;;;;;;;;;;;;-9.54;60.45;97699.84;6296540;28;20403;-68
2022/12/29 14:01:30;;;;;;;;;;;;;;;-9.62;60.06;97697.88;6296480;28;19921;-68
2022/12/29 14:04:36;;;;;;;;;;;;;;;-9.70;60.47;97700.22;6295068;28;19950;-68
2022/12/29 14:07:38;;;;;;;;;;;;;;;-9.74;60.53;97698.41;6295696;28;20408;-68
2022/12/29 14:10:46;;;;;;;;;;;;;;;-9.75;60.52;97697.56;6295866;28;19927;-68
2022/12/29 14:13:48;;;;;;;;;;;;;;;-9.71;60.30;97703.59;6277570;28;19923;-69
2022/12/29 14:16:52;;;;;;;;;;;;;;;-9.72;60.67;97699.31;6296483;28;19920;-68
2022/12/29 14:19:55;;;;;;;;;;;;;;;-9.68;60.33;97703.69;6295937;28;19923;-68
2022/12/29 14:23:14;;;;;;;;;;;;;;;-9.66;60.52;97712.22;6295930;28;19989;-68
2022/12/29 14:26:31;;;;;;;;;;;;;;;-9.62;60.64;97706.41;6296243;28;20431;-68
2022/12/29 14:29:34;;;;;;;;;;;;;;;-9.58;60.15;97705.66;6296464;28;19924;-67
2022/12/29 14:32:38;;;;;;;;;;;;;;;-9.54;60.38;97707.47;6295647;28;20390;-67
2022/12/29 14:35:43;;;;;;;;;;;;;;;-9.47;60.52;97707.63;6295980;28;19920;-69
2022/12/29 14:38:47;;;;;;;;;;;;;;;-9.47;60.21;97702.53;6295446;28;19920;-68
2022/12/29 14:41:59;;;;;;;;;;;;;;;-9.48;60.27;97701.69;6295028;28;20065;-68
2022/12/29 14:45:21;;;;;;;;;;;;;;;-9.47;60.11;97707.63;6294864;28;20309;-68
2022/12/29 14:48:30;;;;;;;;;;;;;;;-9.44;60.15;97702.63;6295245;28;19927;-68
2022/12/29 14:51:35;;;;;;;;;;;;;;;-9.41;60.39;97713.75;6295859;28;20018;-68
2022/12/29 14:54:36;;;;;;;;;;;;;;;-9.38;60.08;97718.06;6295654;28;19924;-68
2022/12/29 14:57:40;;;;;;;;;;;;;;;-9.38;60.40;97712.97;6295580;28;19925;-68
2022/12/29 15:00:44;;;;;;;;;;;;;;;-9.35;60.42;97702.84;6295451;28;19966;-67
2022/12/29 15:03:49;;;;;;;;;;;;;;;-9.33;60.66;97701.22;6295135;28;20259;-69
2022/12/29 15:06:51;;;;;;;;;;;;;;;-9.33;60.25;97696.13;6294803;28;19921;-68
2022/12/29 15:10:00;;;;;;;;;;;;;;;-9.34;60.45;97695.28;6294788;28;19931;-68
2022/12/29 15:13:08;;;;;;;;;;;;;;;-9.39;60.17;97706.16;6294872;28;19920;-68
2022/12/29 15:16:22;;;;;;;;;;;;;;;-9.44;60.22;97700.06;6295535;28;19920;-68
2022/12/29 15:19:27;;;;;;;;;;;;;;;-9.49;60.21;97698.25;6296061;28;19975;-69
2022/12/29 15:22:31;;;;;;;;;;;;;;;-9.52;60.46;97697.31;6295325;28;19920;-68
2022/12/29 15:25:32;;;;;;;;;;;;;;;-9.52;60.50;97695.63;6295051;28;19999;-68
2022/12/29 15:28:40;;;;;;;;;;;;;;;-9.51;60.52;97707.56;6295202;28;19924;-68
2022/12/29 15:31:48;;;;;;;;;;;;;;;-9.53;60.67;97709.19;6295420;28;19924;-68
2022/12/29 15:34:55;;;;;;;;;;;;;;;-9.53;60.53;97704.09;6295472;28;20385;-67
2022/12/29 15:37:58;;;;;;;;;;;;;;;-9.58;60.59;97703.09;6295255;28;20382;-68
2022/12/29 15:41:05;;;;;;;;;;;;;;;-9.57;60.85;97697.19;6294115;28;20420;-68
2022/12/29 15:44:15;;;;;;;;;;;;;;;-9.57;60.72;97697.19;6295882;28;19931;-68
2022/12/29 15:47:17;;;;;;;;;;;;;;;-9.56;60.77;97698.94;6298971;28;19920;-67
2022/12/29 15:50:27;;;;;;;;;;;;;;;-9.55;60.82;97708.28;6299290;28;20341;-69
2022/12/29 15:53:29;;;;;;;;;;;;;;;-9.55;60.65;97710.84;6299416;28;20314;-69
2022/12/29 15:56:31;;;;;;;;;;;;;;;-9.56;60.65;97709.13;6299558;28;20396;-69
2022/12/29 15:59:45;;;;;;;;;;;;;;;-9.55;60.43;97704.88;6299440;28;19921;-68
2022/12/29 16:02:48;;;;;;;;;;;;;;;-9.60;60.73;97699.66;6298605;28;19926;-69
2022/12/29 16:05:51;;;;;;;;;;;;;;;-9.64;60.71;97695.31;6299486;28;19929;-68
2022/12/29 16:08:59;;;;;;;;;;;;;;;-9.73;60.79;97705.25;6298882;28;19945;-68
2022/12/29 16:12:05;;;;;;;;;;;;;;;-9.75;60.74;97696.69;6297192;28;20415;-69
2022/12/29 16:15:13;;;;;;;;;;;;;;;-9.81;60.62;97701.63;6299239;28;19921;-68
2022/12/29 16:18:23;;;;;;;;;;;;;;;-9.85;60.59;97699.78;6299108;28;20027;-69
2022/12/29 16:21:33;;;;;;;;;;;;;;;-9.91;60.77;97705.56;6299162;28;20054;-68
2022/12/29 16:24:36;;;;;;;;;;;;;;;-10.05;60.42;97700.09;6298721;28;20089;-70
2022/12/29 16:27:56;;;;;;;;;;;;;;;-10.18;60.57;97700.56;6298647;28;20031;-69
2022/12/29 16:31:01;;;;;;;;;;;;;;;-10.14;61.12;97707.47;6297612;28;20374;-69
2022/12/29 16:34:31;;;;;;;;;;;;;;;-10.35;60.58;97701.78;6298346;28;19920;-67
2022/12/29 16:37:37;;;;;;;;;;;;;;;-10.44;60.78;97703.22;6287216;28;19958;-68
2022/12/29 16:40:49;;;;;;;;;;;;;;;-10.43;61.08;97692.22;6298834;28;19927;-68
2022/12/29 16:44:11;;;;;;;;;;;;;;;-10.34;61.10;97688.22;6298513;28;19939;-68
2022/12/29 16:47:14;;;;;;;;;;;;;;;-10.33;60.78;97684.88;6298391;28;19927;-68